sensor_id;sensor_type;location;lat;lon;timestamp;P1;durP1;ratioP1;P2;durP2;ratioP2
28587;SDS011;15787;49.662;10.162;2024-01-06T00:00:48;6.03;;;2.65;;
28587;SDS011;15787;49.662;10.162;2024-01-06T00:03:21;7.90;;;3.33;;
28587;SDS011;15787;49.662;10.162;2024-01-06T00:05:54;5.18;;;2.67;;
28587;SDS011;15787;49.662;10.162;2024-01-06T00:08:28;8.73;;;2.92;;
28587;SDS011;15787;49.662;10.162;2024-01-06T00:11:01;7.95;;;2.45;;
28587;SDS011;15787;49.662;10.162;2024-01-06T00:13:35;9.18;;;2.67;;
28587;SDS011;15787;49.662;10.162;2024-01-06T00:16:10;8.07;;;2.80;;
28587;SDS011;15787;49.662;10.162;2024-01-06T00:18:43;6.07;;;2.50;;
28587;SDS011;15787;49.662;10.162;2024-01-06T00:21:16;6.15;;;2.90;;
28587;SDS011;15787;49.662;10.162;2024-01-06T00:23:49;7.45;;;3.25;;
28587;SDS011;15787;49.662;10.162;2024-01-06T00:26:22;7.93;;;2.92;;
28587;SDS011;15787;49.662;10.162;2024-01-06T00:28:55;7.03;;;2.30;;
28587;SDS011;15787;49.662;10.162;2024-01-06T00:31:29;7.07;;;3.53;;
28587;SDS011;15787;49.662;10.162;2024-01-06T00:34:03;7.30;;;3.22;;
28587;SDS011;15787;49.662;10.162;2024-01-06T00:36:36;9.48;;;4.13;;
28587;SDS011;15787;49.662;10.162;2024-01-06T00:39:09;6.55;;;3.00;;
28587;SDS011;15787;49.662;10.162;2024-01-06T00:41:42;6.13;;;3.08;;
28587;SDS011;15787;49.662;10.162;2024-01-06T00:44:15;8.25;;;4.32;;
28587;SDS011;15787;49.662;10.162;2024-01-06T00:46:49;7.35;;;3.80;;
28587;SDS011;15787;49.662;10.162;2024-01-06T00:49:22;12.43;;;3.78;;
28587;SDS011;15787;49.662;10.162;2024-01-06T00:51:55;7.25;;;3.30;;
28587;SDS011;15787;49.662;10.162;2024-01-06T00:54:28;8.70;;;3.85;;
28587;SDS011;15787;49.662;10.162;2024-01-06T00:57:01;5.15;;;2.92;;
28587;SDS011;15787;49.662;10.162;2024-01-06T00:59:34;5.43;;;2.70;;
28587;SDS011;15787;49.662;10.162;2024-01-06T01:02:08;6.00;;;2.92;;
28587;SDS011;15787;49.662;10.162;2024-01-06T01:04:41;5.07;;;2.90;;
28587;SDS011;15787;49.662;10.162;2024-01-06T01:07:14;6.90;;;2.50;;
28587;SDS011;15787;49.662;10.162;2024-01-06T01:09:47;8.82;;;3.28;;
28587;SDS011;15787;49.662;10.162;2024-01-06T01:12:20;6.40;;;2.83;;
28587;SDS011;15787;49.662;10.162;2024-01-06T01:14:53;6.35;;;2.60;;
28587;SDS011;15787;49.662;10.162;2024-01-06T01:17:27;4.97;;;2.60;;
28587;SDS011;15787;49.662;10.162;2024-01-06T01:20:01;6.50;;;2.58;;
28587;SDS011;15787;49.662;10.162;2024-01-06T01:22:34;6.72;;;3.05;;
28587;SDS011;15787;49.662;10.162;2024-01-06T01:25:07;4.85;;;2.95;;
28587;SDS011;15787;49.662;10.162;2024-01-06T01:27:41;6.55;;;2.85;;
28587;SDS011;15787;49.662;10.162;2024-01-06T01:30:14;5.03;;;2.47;;
28587;SDS011;15787;49.662;10.162;2024-01-06T01:32:47;8.98;;;2.65;;
28587;SDS011;15787;49.662;10.162;2024-01-06T01:35:21;9.98;;;2.60;;
28587;SDS011;15787;49.662;10.162;2024-01-06T01:37:53;5.43;;;2.95;;
28587;SDS011;15787;49.662;10.162;2024-01-06T01:40:26;14.27;;;4.05;;
28587;SDS011;15787;49.662;10.162;2024-01-06T01:43:02;5.80;;;2.72;;
28587;SDS011;15787;49.662;10.162;2024-01-06T01:45:35;7.90;;;2.80;;
28587;SDS011;15787;49.662;10.162;2024-01-06T01:48:09;6.72;;;2.63;;
28587;SDS011;15787;49.662;10.162;2024-01-06T01:50:42;7.90;;;2.63;;
28587;SDS011;15787;49.662;10.162;2024-01-06T01:53:15;4.25;;;2.58;;
28587;SDS011;15787;49.662;10.162;2024-01-06T01:55:48;7.15;;;2.55;;
28587;SDS011;15787;49.662;10.162;2024-01-06T01:58:22;4.05;;;2.50;;
28587;SDS011;15787;49.662;10.162;2024-01-06T02:00:55;9.75;;;2.40;;
28587;SDS011;15787;49.662;10.162;2024-01-06T02:03:29;4.78;;;2.20;;
28587;SDS011;15787;49.662;10.162;2024-01-06T02:06:03;5.13;;;2.40;;
28587;SDS011;15787;49.662;10.162;2024-01-06T02:08:36;5.30;;;2.85;;
28587;SDS011;15787;49.662;10.162;2024-01-06T02:11:09;4.63;;;2.40;;
28587;SDS011;15787;49.662;10.162;2024-01-06T02:13:42;6.40;;;2.40;;
28587;SDS011;15787;49.662;10.162;2024-01-06T02:16:15;5.95;;;2.40;;
28587;SDS011;15787;49.662;10.162;2024-01-06T02:18:49;6.18;;;2.42;;
28587;SDS011;15787;49.662;10.162;2024-01-06T02:21:22;6.80;;;2.42;;
28587;SDS011;15787;49.662;10.162;2024-01-06T02:23:57;5.63;;;2.25;;
28587;SDS011;15787;49.662;10.162;2024-01-06T02:26:30;5.28;;;2.10;;
28587;SDS011;15787;49.662;10.162;2024-01-06T02:29:03;5.97;;;1.77;;
28587;SDS011;15787;49.662;10.162;2024-01-06T02:31:36;4.50;;;2.20;;
28587;SDS011;15787;49.662;10.162;2024-01-06T02:34:09;4.68;;;2.00;;
28587;SDS011;15787;49.662;10.162;2024-01-06T02:39:23;4.95;;;2.40;;
28587;SDS011;15787;49.662;10.162;2024-01-06T02:41:56;5.63;;;2.38;;
28587;SDS011;15787;49.662;10.162;2024-01-06T02:44:29;4.05;;;2.50;;
28587;SDS011;15787;49.662;10.162;2024-01-06T02:47:02;4.50;;;2.05;;
28587;SDS011;15787;49.662;10.162;2024-01-06T02:49:35;5.32;;;2.30;;
28587;SDS011;15787;49.662;10.162;2024-01-06T02:52:08;8.57;;;2.22;;
28587;SDS011;15787;49.662;10.162;2024-01-06T02:54:42;3.58;;;2.28;;
28587;SDS011;15787;49.662;10.162;2024-01-06T02:57:15;5.22;;;2.58;;
28587;SDS011;15787;49.662;10.162;2024-01-06T02:59:48;6.10;;;2.00;;
28587;SDS011;15787;49.662;10.162;2024-01-06T03:02:21;9.45;;;2.72;;
28587;SDS011;15787;49.662;10.162;2024-01-06T03:04:54;7.38;;;2.90;;
28587;SDS011;15787;49.662;10.162;2024-01-06T03:07:27;8.88;;;4.35;;
28587;SDS011;15787;49.662;10.162;2024-01-06T03:10:02;11.70;;;5.18;;
28587;SDS011;15787;49.662;10.162;2024-01-06T03:12:35;13.82;;;5.55;;
28587;SDS011;15787;49.662;10.162;2024-01-06T03:15:08;10.68;;;4.63;;
28587;SDS011;15787;49.662;10.162;2024-01-06T03:17:42;6.75;;;3.58;;
28587;SDS011;15787;49.662;10.162;2024-01-06T03:20:15;6.03;;;3.47;;
28587;SDS011;15787;49.662;10.162;2024-01-06T03:22:48;5.82;;;2.88;;
28587;SDS011;15787;49.662;10.162;2024-01-06T03:25:22;5.22;;;2.28;;
28587;SDS011;15787;49.662;10.162;2024-01-06T03:27:55;6.38;;;2.88;;
28587;SDS011;15787;49.662;10.162;2024-01-06T03:30:28;6.13;;;2.38;;
28587;SDS011;15787;49.662;10.162;2024-01-06T03:33:01;5.07;;;2.20;;
28587;SDS011;15787;49.662;10.162;2024-01-06T03:35:34;6.28;;;2.53;;
28587;SDS011;15787;49.662;10.162;2024-01-06T03:38:07;4.53;;;2.58;;
28587;SDS011;15787;49.662;10.162;2024-01-06T03:40:41;6.22;;;2.10;;
28587;SDS011;15787;49.662;10.162;2024-01-06T03:43:14;7.57;;;2.42;;
28587;SDS011;15787;49.662;10.162;2024-01-06T03:45:47;6.50;;;2.33;;
28587;SDS011;15787;49.662;10.162;2024-01-06T03:48:20;5.43;;;2.53;;
28587;SDS011;15787;49.662;10.162;2024-01-06T03:50:53;5.95;;;2.38;;
28587;SDS011;15787;49.662;10.162;2024-01-06T03:53:26;6.78;;;2.30;;
28587;SDS011;15787;49.662;10.162;2024-01-06T03:56:00;5.55;;;2.15;;
28587;SDS011;15787;49.662;10.162;2024-01-06T03:58:33;8.18;;;2.65;;
28587;SDS011;15787;49.662;10.162;2024-01-06T04:01:06;6.43;;;2.47;;
28587;SDS011;15787;49.662;10.162;2024-01-06T04:03:39;3.88;;;1.98;;
28587;SDS011;15787;49.662;10.162;2024-01-06T04:06:13;4.88;;;2.25;;
28587;SDS011;15787;49.662;10.162;2024-01-06T04:08:46;3.90;;;2.20;;
28587;SDS011;15787;49.662;10.162;2024-01-06T04:11:20;5.65;;;2.22;;
28587;SDS011;15787;49.662;10.162;2024-01-06T04:13:53;4.18;;;2.30;;
28587;SDS011;15787;49.662;10.162;2024-01-06T04:16:26;5.78;;;2.30;;
28587;SDS011;15787;49.662;10.162;2024-01-06T04:18:59;5.60;;;2.50;;
28587;SDS011;15787;49.662;10.162;2024-01-06T04:21:32;6.85;;;2.78;;
28587;SDS011;15787;49.662;10.162;2024-01-06T04:24:05;8.23;;;2.50;;
28587;SDS011;15787;49.662;10.162;2024-01-06T04:26:40;5.72;;;2.40;;
28587;SDS011;15787;49.662;10.162;2024-01-06T04:29:16;6.18;;;2.47;;
28587;SDS011;15787;49.662;10.162;2024-01-06T04:31:49;4.90;;;2.13;;
28587;SDS011;15787;49.662;10.162;2024-01-06T04:34:22;7.97;;;2.22;;
28587;SDS011;15787;49.662;10.162;2024-01-06T04:36:55;5.65;;;2.10;;
28587;SDS011;15787;49.662;10.162;2024-01-06T04:39:28;9.55;;;2.45;;
28587;SDS011;15787;49.662;10.162;2024-01-06T04:42:02;6.97;;;2.42;;
28587;SDS011;15787;49.662;10.162;2024-01-06T04:44:35;6.90;;;2.38;;
28587;SDS011;15787;49.662;10.162;2024-01-06T04:47:08;10.20;;;2.33;;
28587;SDS011;15787;49.662;10.162;2024-01-06T04:49:41;8.63;;;2.42;;
28587;SDS011;15787;49.662;10.162;2024-01-06T04:52:14;6.35;;;2.15;;
28587;SDS011;15787;49.662;10.162;2024-01-06T04:54:46;5.50;;;2.15;;
28587;SDS011;15787;49.662;10.162;2024-01-06T04:57:21;8.82;;;2.42;;
28587;SDS011;15787;49.662;10.162;2024-01-06T04:59:54;6.07;;;2.28;;
28587;SDS011;15787;49.662;10.162;2024-01-06T05:02:27;3.65;;;2.10;;
28587;SDS011;15787;49.662;10.162;2024-01-06T05:05:00;5.53;;;2.35;;
28587;SDS011;15787;49.662;10.162;2024-01-06T05:07:33;10.43;;;5.68;;
28587;SDS011;15787;49.662;10.162;2024-01-06T05:10:06;5.00;;;2.92;;
28587;SDS011;15787;49.662;10.162;2024-01-06T05:12:42;8.75;;;3.15;;
28587;SDS011;15787;49.662;10.162;2024-01-06T05:15:15;5.43;;;2.60;;
28587;SDS011;15787;49.662;10.162;2024-01-06T05:17:48;6.88;;;2.92;;
28587;SDS011;15787;49.662;10.162;2024-01-06T05:20:21;7.75;;;3.53;;
28587;SDS011;15787;49.662;10.162;2024-01-06T05:22:54;7.05;;;3.08;;
28587;SDS011;15787;49.662;10.162;2024-01-06T05:25:27;19.17;;;8.43;;
28587;SDS011;15787;49.662;10.162;2024-01-06T05:28:01;12.18;;;6.22;;
28587;SDS011;15787;49.662;10.162;2024-01-06T05:30:34;11.30;;;5.22;;
28587;SDS011;15787;49.662;10.162;2024-01-06T05:33:08;6.70;;;2.85;;
28587;SDS011;15787;49.662;10.162;2024-01-06T05:35:45;6.90;;;3.40;;
28587;SDS011;15787;49.662;10.162;2024-01-06T05:38:18;6.10;;;2.63;;
28587;SDS011;15787;49.662;10.162;2024-01-06T05:40:51;7.13;;;3.38;;
28587;SDS011;15787;49.662;10.162;2024-01-06T05:43:25;8.05;;;3.45;;
28587;SDS011;15787;49.662;10.162;2024-01-06T05:45:58;6.07;;;2.75;;
28587;SDS011;15787;49.662;10.162;2024-01-06T05:48:31;6.35;;;2.40;;
28587;SDS011;15787;49.662;10.162;2024-01-06T05:51:05;8.38;;;2.60;;
28587;SDS011;15787;49.662;10.162;2024-01-06T05:53:37;9.15;;;3.65;;
28587;SDS011;15787;49.662;10.162;2024-01-06T05:56:10;6.80;;;2.67;;
28587;SDS011;15787;49.662;10.162;2024-01-06T05:58:45;10.77;;;2.90;;
28587;SDS011;15787;49.662;10.162;2024-01-06T06:01:18;8.32;;;4.25;;
28587;SDS011;15787;49.662;10.162;2024-01-06T06:03:54;6.55;;;2.92;;
28587;SDS011;15787;49.662;10.162;2024-01-06T06:06:27;7.43;;;3.15;;
28587;SDS011;15787;49.662;10.162;2024-01-06T06:09:00;8.82;;;3.00;;
28587;SDS011;15787;49.662;10.162;2024-01-06T06:11:38;7.38;;;3.25;;
28587;SDS011;15787;49.662;10.162;2024-01-06T06:14:12;9.52;;;3.25;;
28587;SDS011;15787;49.662;10.162;2024-01-06T06:16:45;9.45;;;3.65;;
28587;SDS011;15787;49.662;10.162;2024-01-06T06:19:19;5.05;;;3.22;;
28587;SDS011;15787;49.662;10.162;2024-01-06T06:21:52;8.80;;;3.65;;
28587;SDS011;15787;49.662;10.162;2024-01-06T06:24:25;8.85;;;4.18;;
28587;SDS011;15787;49.662;10.162;2024-01-06T06:26:58;8.20;;;3.70;;
28587;SDS011;15787;49.662;10.162;2024-01-06T06:29:32;8.90;;;4.35;;
28587;SDS011;15787;49.662;10.162;2024-01-06T06:32:05;9.45;;;4.32;;
28587;SDS011;15787;49.662;10.162;2024-01-06T06:34:39;8.02;;;4.82;;
28587;SDS011;15787;49.662;10.162;2024-01-06T06:37:12;12.30;;;5.20;;
28587;SDS011;15787;49.662;10.162;2024-01-06T06:39:45;7.88;;;4.30;;
28587;SDS011;15787;49.662;10.162;2024-01-06T06:42:18;13.38;;;4.60;;
28587;SDS011;15787;49.662;10.162;2024-01-06T06:44:53;12.23;;;5.30;;
28587;SDS011;15787;49.662;10.162;2024-01-06T06:47:27;10.45;;;4.80;;
28587;SDS011;15787;49.662;10.162;2024-01-06T06:50:00;14.07;;;5.55;;
28587;SDS011;15787;49.662;10.162;2024-01-06T06:52:33;9.60;;;5.25;;
28587;SDS011;15787;49.662;10.162;2024-01-06T06:55:06;11.40;;;5.22;;
28587;SDS011;15787;49.662;10.162;2024-01-06T06:57:39;13.18;;;5.50;;
28587;SDS011;15787;49.662;10.162;2024-01-06T07:00:14;13.15;;;5.90;;
28587;SDS011;15787;49.662;10.162;2024-01-06T07:02:48;8.73;;;5.18;;
28587;SDS011;15787;49.662;10.162;2024-01-06T07:05:21;11.55;;;6.03;;
28587;SDS011;15787;49.662;10.162;2024-01-06T07:07:54;11.65;;;5.25;;
28587;SDS011;15787;49.662;10.162;2024-01-06T07:10:27;10.18;;;5.63;;
28587;SDS011;15787;49.662;10.162;2024-01-06T07:13:00;12.52;;;5.35;;
28587;SDS011;15787;49.662;10.162;2024-01-06T07:15:34;8.50;;;5.32;;
28587;SDS011;15787;49.662;10.162;2024-01-06T07:18:07;13.52;;;5.38;;
28587;SDS011;15787;49.662;10.162;2024-01-06T07:20:41;11.13;;;5.35;;
28587;SDS011;15787;49.662;10.162;2024-01-06T07:23:14;7.07;;;4.85;;
28587;SDS011;15787;49.662;10.162;2024-01-06T07:25:47;13.85;;;5.68;;
28587;SDS011;15787;49.662;10.162;2024-01-06T07:28:20;13.05;;;6.03;;
28587;SDS011;15787;49.662;10.162;2024-01-06T07:30:54;13.30;;;6.03;;
28587;SDS011;15787;49.662;10.162;2024-01-06T07:33:27;13.77;;;5.20;;
28587;SDS011;15787;49.662;10.162;2024-01-06T07:36:00;17.85;;;5.57;;
28587;SDS011;15787;49.662;10.162;2024-01-06T07:38:33;11.70;;;5.82;;
28587;SDS011;15787;49.662;10.162;2024-01-06T07:41:06;13.05;;;6.07;;
28587;SDS011;15787;49.662;10.162;2024-01-06T07:43:39;14.27;;;5.68;;
28587;SDS011;15787;49.662;10.162;2024-01-06T07:46:13;11.40;;;5.40;;
28587;SDS011;15787;49.662;10.162;2024-01-06T07:48:50;9.88;;;4.90;;
28587;SDS011;15787;49.662;10.162;2024-01-06T07:51:23;10.15;;;5.57;;
28587;SDS011;15787;49.662;10.162;2024-01-06T07:53:56;13.05;;;5.88;;
28587;SDS011;15787;49.662;10.162;2024-01-06T07:56:29;11.00;;;5.18;;
28587;SDS011;15787;49.662;10.162;2024-01-06T07:59:03;8.57;;;5.10;;
28587;SDS011;15787;49.662;10.162;2024-01-06T08:01:37;10.73;;;5.97;;
28587;SDS011;15787;49.662;10.162;2024-01-06T08:04:11;11.25;;;4.93;;
28587;SDS011;15787;49.662;10.162;2024-01-06T08:06:43;9.43;;;4.45;;
28587;SDS011;15787;49.662;10.162;2024-01-06T08:09:16;11.77;;;5.20;;
28587;SDS011;15787;49.662;10.162;2024-01-06T08:11:49;10.30;;;4.57;;
28587;SDS011;15787;49.662;10.162;2024-01-06T08:14:22;11.32;;;5.35;;
28587;SDS011;15787;49.662;10.162;2024-01-06T08:16:56;11.70;;;5.40;;
28587;SDS011;15787;49.662;10.162;2024-01-06T08:19:29;11.32;;;5.00;;
28587;SDS011;15787;49.662;10.162;2024-01-06T08:22:04;8.75;;;5.07;;
28587;SDS011;15787;49.662;10.162;2024-01-06T08:24:36;8.20;;;4.40;;
28587;SDS011;15787;49.662;10.162;2024-01-06T08:27:09;7.00;;;4.35;;
28587;SDS011;15787;49.662;10.162;2024-01-06T08:29:42;10.20;;;4.28;;
28587;SDS011;15787;49.662;10.162;2024-01-06T08:32:16;13.68;;;5.30;;
28587;SDS011;15787;49.662;10.162;2024-01-06T08:34:49;11.15;;;5.03;;
28587;SDS011;15787;49.662;10.162;2024-01-06T08:37:22;11.85;;;5.18;;
28587;SDS011;15787;49.662;10.162;2024-01-06T08:39:55;11.75;;;5.15;;
28587;SDS011;15787;49.662;10.162;2024-01-06T08:42:28;15.65;;;6.25;;
28587;SDS011;15787;49.662;10.162;2024-01-06T08:45:01;15.40;;;6.88;;
28587;SDS011;15787;49.662;10.162;2024-01-06T08:47:35;11.30;;;5.70;;
28587;SDS011;15787;49.662;10.162;2024-01-06T08:50:09;9.15;;;5.88;;
28587;SDS011;15787;49.662;10.162;2024-01-06T08:52:42;10.50;;;5.60;;
28587;SDS011;15787;49.662;10.162;2024-01-06T08:55:14;14.23;;;5.80;;
28587;SDS011;15787;49.662;10.162;2024-01-06T08:57:48;8.23;;;4.85;;
28587;SDS011;15787;49.662;10.162;2024-01-06T09:00:21;11.00;;;4.75;;
28587;SDS011;15787;49.662;10.162;2024-01-06T09:02:55;10.35;;;5.07;;
28587;SDS011;15787;49.662;10.162;2024-01-06T09:05:28;8.43;;;4.63;;
28587;SDS011;15787;49.662;10.162;2024-01-06T09:08:01;11.55;;;5.22;;
28587;SDS011;15787;49.662;10.162;2024-01-06T09:10:34;10.05;;;5.47;;
28587;SDS011;15787;49.662;10.162;2024-01-06T09:13:07;10.65;;;5.65;;
28587;SDS011;15787;49.662;10.162;2024-01-06T09:15:40;11.70;;;5.47;;
28587;SDS011;15787;49.662;10.162;2024-01-06T09:18:15;11.50;;;6.40;;
28587;SDS011;15787;49.662;10.162;2024-01-06T09:20:48;10.60;;;5.85;;
28587;SDS011;15787;49.662;10.162;2024-01-06T09:23:22;14.95;;;5.68;;
28587;SDS011;15787;49.662;10.162;2024-01-06T09:25:56;12.88;;;6.18;;
28587;SDS011;15787;49.662;10.162;2024-01-06T09:28:29;11.00;;;5.80;;
28587;SDS011;15787;49.662;10.162;2024-01-06T09:31:02;10.07;;;5.68;;
28587;SDS011;15787;49.662;10.162;2024-01-06T09:33:37;12.88;;;5.65;;
28587;SDS011;15787;49.662;10.162;2024-01-06T09:36:10;11.35;;;4.72;;
28587;SDS011;15787;49.662;10.162;2024-01-06T09:38:45;10.05;;;4.78;;
28587;SDS011;15787;49.662;10.162;2024-01-06T09:41:18;10.05;;;4.70;;
28587;SDS011;15787;49.662;10.162;2024-01-06T09:43:53;11.93;;;5.50;;
28587;SDS011;15787;49.662;10.162;2024-01-06T09:46:27;11.70;;;5.07;;
28587;SDS011;15787;49.662;10.162;2024-01-06T09:49:03;11.57;;;5.10;;
28587;SDS011;15787;49.662;10.162;2024-01-06T09:51:36;8.02;;;5.22;;
28587;SDS011;15787;49.662;10.162;2024-01-06T09:54:12;14.52;;;5.90;;
28587;SDS011;15787;49.662;10.162;2024-01-06T09:56:45;15.10;;;5.38;;
28587;SDS011;15787;49.662;10.162;2024-01-06T09:59:18;10.05;;;4.82;;
28587;SDS011;15787;49.662;10.162;2024-01-06T10:01:51;9.02;;;4.97;;
28587;SDS011;15787;49.662;10.162;2024-01-06T10:04:26;9.68;;;4.35;;
28587;SDS011;15787;49.662;10.162;2024-01-06T10:06:59;13.77;;;5.50;;
28587;SDS011;15787;49.662;10.162;2024-01-06T10:09:33;10.05;;;5.93;;
28587;SDS011;15787;49.662;10.162;2024-01-06T10:12:06;11.27;;;5.40;;
28587;SDS011;15787;49.662;10.162;2024-01-06T10:14:39;10.85;;;6.05;;
28587;SDS011;15787;49.662;10.162;2024-01-06T10:17:12;9.75;;;5.95;;
28587;SDS011;15787;49.662;10.162;2024-01-06T10:19:47;10.50;;;5.15;;
28587;SDS011;15787;49.662;10.162;2024-01-06T10:22:21;9.63;;;5.40;;
28587;SDS011;15787;49.662;10.162;2024-01-06T10:24:54;7.32;;;4.60;;
28587;SDS011;15787;49.662;10.162;2024-01-06T10:27:27;8.00;;;4.70;;
28587;SDS011;15787;49.662;10.162;2024-01-06T10:30:00;8.98;;;4.60;;
28587;SDS011;15787;49.662;10.162;2024-01-06T10:32:34;6.78;;;4.80;;
28587;SDS011;15787;49.662;10.162;2024-01-06T10:35:10;10.30;;;5.15;;
28587;SDS011;15787;49.662;10.162;2024-01-06T10:37:43;10.77;;;4.93;;
28587;SDS011;15787;49.662;10.162;2024-01-06T10:40:17;9.80;;;5.35;;
28587;SDS011;15787;49.662;10.162;2024-01-06T10:42:50;13.43;;;5.60;;
28587;SDS011;15787;49.662;10.162;2024-01-06T10:45:23;8.07;;;4.57;;
28587;SDS011;15787;49.662;10.162;2024-01-06T10:47:57;10.30;;;5.07;;
28587;SDS011;15787;49.662;10.162;2024-01-06T10:50:33;11.25;;;5.15;;
28587;SDS011;15787;49.662;10.162;2024-01-06T10:53:07;13.20;;;4.80;;
28587;SDS011;15787;49.662;10.162;2024-01-06T10:55:41;6.25;;;3.92;;
28587;SDS011;15787;49.662;10.162;2024-01-06T10:58:14;8.88;;;4.80;;
28587;SDS011;15787;49.662;10.162;2024-01-06T11:00:49;7.03;;;4.53;;
28587;SDS011;15787;49.662;10.162;2024-01-06T11:03:23;12.13;;;4.88;;
28587;SDS011;15787;49.662;10.162;2024-01-06T11:05:59;12.25;;;5.53;;
28587;SDS011;15787;49.662;10.162;2024-01-06T11:08:33;8.20;;;5.13;;
28587;SDS011;15787;49.662;10.162;2024-01-06T11:11:15;12.90;;;4.53;;
28587;SDS011;15787;49.662;10.162;2024-01-06T11:13:49;12.73;;;4.80;;
28587;SDS011;15787;49.662;10.162;2024-01-06T11:16:34;10.13;;;4.53;;
28587;SDS011;15787;49.662;10.162;2024-01-06T11:22:21;19.17;;;7.97;;
28587;SDS011;15787;49.662;10.162;2024-01-06T11:24:57;19.52;;;8.63;;
28587;SDS011;15787;49.662;10.162;2024-01-06T11:27:36;14.32;;;5.40;;
28587;SDS011;15787;49.662;10.162;2024-01-06T11:30:09;9.40;;;4.82;;
28587;SDS011;15787;49.662;10.162;2024-01-06T11:32:52;9.43;;;4.40;;
28587;SDS011;15787;49.662;10.162;2024-01-06T11:35:27;11.05;;;4.97;;
28587;SDS011;15787;49.662;10.162;2024-01-06T11:38:01;7.65;;;4.07;;
28587;SDS011;15787;49.662;10.162;2024-01-06T11:40:35;9.70;;;4.53;;
28587;SDS011;15787;49.662;10.162;2024-01-06T11:43:09;9.98;;;4.38;;
28587;SDS011;15787;49.662;10.162;2024-01-06T11:45:44;9.18;;;4.55;;
28587;SDS011;15787;49.662;10.162;2024-01-06T11:48:17;9.57;;;4.97;;
28587;SDS011;15787;49.662;10.162;2024-01-06T11:50:56;11.05;;;6.18;;
28587;SDS011;15787;49.662;10.162;2024-01-06T11:53:32;9.98;;;5.50;;
28587;SDS011;15787;49.662;10.162;2024-01-06T11:56:09;9.70;;;5.50;;
28587;SDS011;15787;49.662;10.162;2024-01-06T11:58:42;10.43;;;4.63;;
28587;SDS011;15787;49.662;10.162;2024-01-06T12:01:15;9.75;;;5.57;;
28587;SDS011;15787;49.662;10.162;2024-01-06T12:03:53;9.68;;;4.88;;
28587;SDS011;15787;49.662;10.162;2024-01-06T12:06:26;15.07;;;8.60;;
28587;SDS011;15787;49.662;10.162;2024-01-06T12:09:04;10.35;;;6.82;;
28587;SDS011;15787;49.662;10.162;2024-01-06T12:11:37;9.50;;;4.63;;
28587;SDS011;15787;49.662;10.162;2024-01-06T12:14:11;9.18;;;4.43;;
28587;SDS011;15787;49.662;10.162;2024-01-06T12:16:43;7.57;;;4.20;;
28587;SDS011;15787;49.662;10.162;2024-01-06T12:19:17;10.70;;;5.15;;
28587;SDS011;15787;49.662;10.162;2024-01-06T12:21:50;8.73;;;4.47;;
28587;SDS011;15787;49.662;10.162;2024-01-06T12:24:26;9.63;;;4.90;;
28587;SDS011;15787;49.662;10.162;2024-01-06T12:27:01;11.07;;;5.13;;
28587;SDS011;15787;49.662;10.162;2024-01-06T12:29:34;25.50;;;12.77;;
28587;SDS011;15787;49.662;10.162;2024-01-06T12:32:11;13.75;;;7.13;;
28587;SDS011;15787;49.662;10.162;2024-01-06T12:34:45;12.45;;;6.00;;
28587;SDS011;15787;49.662;10.162;2024-01-06T12:37:18;9.43;;;5.43;;
28587;SDS011;15787;49.662;10.162;2024-01-06T12:39:53;9.07;;;5.28;;
28587;SDS011;15787;49.662;10.162;2024-01-06T12:42:27;11.50;;;6.00;;
28587;SDS011;15787;49.662;10.162;2024-01-06T12:45:00;8.60;;;4.57;;
28587;SDS011;15787;49.662;10.162;2024-01-06T12:47:33;11.00;;;6.72;;
28587;SDS011;15787;49.662;10.162;2024-01-06T12:50:07;11.77;;;4.47;;
28587;SDS011;15787;49.662;10.162;2024-01-06T12:52:40;10.38;;;4.40;;
28587;SDS011;15787;49.662;10.162;2024-01-06T12:55:15;9.73;;;4.95;;
28587;SDS011;15787;49.662;10.162;2024-01-06T12:57:48;9.65;;;5.47;;
28587;SDS011;15787;49.662;10.162;2024-01-06T13:00:21;8.52;;;4.78;;
28587;SDS011;15787;49.662;10.162;2024-01-06T13:02:54;9.25;;;5.65;;
28587;SDS011;15787;49.662;10.162;2024-01-06T13:05:27;6.88;;;4.55;;
28587;SDS011;15787;49.662;10.162;2024-01-06T13:08:00;11.60;;;6.57;;
28587;SDS011;15787;49.662;10.162;2024-01-06T13:10:36;8.63;;;5.82;;
28587;SDS011;15787;49.662;10.162;2024-01-06T13:13:10;9.57;;;4.30;;
28587;SDS011;15787;49.662;10.162;2024-01-06T13:15:42;10.50;;;5.50;;
28587;SDS011;15787;49.662;10.162;2024-01-06T13:18:17;8.18;;;4.35;;
28587;SDS011;15787;49.662;10.162;2024-01-06T13:20:50;11.35;;;5.25;;
28587;SDS011;15787;49.662;10.162;2024-01-06T13:23:24;9.07;;;5.18;;
28587;SDS011;15787;49.662;10.162;2024-01-06T13:25:59;13.63;;;5.78;;
28587;SDS011;15787;49.662;10.162;2024-01-06T13:28:32;12.73;;;6.18;;
28587;SDS011;15787;49.662;10.162;2024-01-06T13:31:05;13.82;;;6.68;;
28587;SDS011;15787;49.662;10.162;2024-01-06T13:33:38;11.18;;;6.22;;
28587;SDS011;15787;49.662;10.162;2024-01-06T13:36:12;10.25;;;6.03;;
28587;SDS011;15787;49.662;10.162;2024-01-06T13:38:45;11.00;;;5.43;;
28587;SDS011;15787;49.662;10.162;2024-01-06T13:41:21;10.60;;;5.65;;
28587;SDS011;15787;49.662;10.162;2024-01-06T13:43:54;10.75;;;6.43;;
28587;SDS011;15787;49.662;10.162;2024-01-06T13:46:27;10.18;;;6.18;;
28587;SDS011;15787;49.662;10.162;2024-01-06T13:48:59;8.98;;;5.65;;
28587;SDS011;15787;49.662;10.162;2024-01-06T13:51:33;10.73;;;5.32;;
28587;SDS011;15787;49.662;10.162;2024-01-06T13:54:07;9.48;;;5.10;;
28587;SDS011;15787;49.662;10.162;2024-01-06T13:56:42;8.98;;;4.90;;
28587;SDS011;15787;49.662;10.162;2024-01-06T13:59:15;7.53;;;5.07;;
28587;SDS011;15787;49.662;10.162;2024-01-06T14:01:48;10.73;;;5.90;;
28587;SDS011;15787;49.662;10.162;2024-01-06T14:04:21;8.38;;;5.50;;
28587;SDS011;15787;49.662;10.162;2024-01-06T14:06:55;9.73;;;5.30;;
28587;SDS011;15787;49.662;10.162;2024-01-06T14:09:32;10.73;;;6.30;;
28587;SDS011;15787;49.662;10.162;2024-01-06T14:12:07;10.73;;;4.95;;
28587;SDS011;15787;49.662;10.162;2024-01-06T14:14:40;9.02;;;5.28;;
28587;SDS011;15787;49.662;10.162;2024-01-06T14:17:13;13.07;;;5.75;;
28587;SDS011;15787;49.662;10.162;2024-01-06T14:19:46;8.00;;;4.63;;
28587;SDS011;15787;49.662;10.162;2024-01-06T14:22:19;9.10;;;5.38;;
28587;SDS011;15787;49.662;10.162;2024-01-06T14:24:52;12.35;;;5.72;;
28587;SDS011;15787;49.662;10.162;2024-01-06T14:27:26;12.40;;;5.63;;
28587;SDS011;15787;49.662;10.162;2024-01-06T14:30:01;11.27;;;5.00;;
28587;SDS011;15787;49.662;10.162;2024-01-06T14:32:34;8.73;;;4.93;;
28587;SDS011;15787;49.662;10.162;2024-01-06T14:35:08;8.35;;;5.22;;
28587;SDS011;15787;49.662;10.162;2024-01-06T14:37:43;12.27;;;6.22;;
28587;SDS011;15787;49.662;10.162;2024-01-06T14:40:17;13.30;;;5.65;;
28587;SDS011;15787;49.662;10.162;2024-01-06T14:42:51;14.25;;;6.43;;
28587;SDS011;15787;49.662;10.162;2024-01-06T14:45:24;14.98;;;6.95;;
28587;SDS011;15787;49.662;10.162;2024-01-06T14:47:58;14.57;;;6.47;;
28587;SDS011;15787;49.662;10.162;2024-01-06T14:50:32;9.93;;;6.00;;
28587;SDS011;15787;49.662;10.162;2024-01-06T14:53:05;12.73;;;5.97;;
28587;SDS011;15787;49.662;10.162;2024-01-06T14:55:38;10.20;;;5.90;;
28587;SDS011;15787;49.662;10.162;2024-01-06T14:58:12;8.20;;;5.90;;
28587;SDS011;15787;49.662;10.162;2024-01-06T15:00:45;13.82;;;6.97;;
28587;SDS011;15787;49.662;10.162;2024-01-06T15:03:18;11.35;;;6.50;;
28587;SDS011;15787;49.662;10.162;2024-01-06T15:05:51;12.52;;;6.47;;
28587;SDS011;15787;49.662;10.162;2024-01-06T15:08:24;12.65;;;6.63;;
28587;SDS011;15787;49.662;10.162;2024-01-06T15:10:58;10.60;;;5.97;;